sensor_id;sensor_type;location;lat;lon;timestamp;temperature;humidity
75489;HTU21D;64069;46.396;48.102;2023-07-20T00:01:26;23.10;63.38
75489;HTU21D;64069;46.396;48.102;2023-07-20T00:03:52;23.08;63.48
75489;HTU21D;64069;46.396;48.102;2023-07-20T00:06:25;23.06;63.62
75489;HTU21D;64069;46.396;48.102;2023-07-20T00:08:56;23.03;63.69
75489;HTU21D;64069;46.396;48.102;2023-07-20T00:11:26;23.02;63.63
75489;HTU21D;64069;46.396;48.102;2023-07-20T00:13:52;22.99;63.66
75489;HTU21D;64069;46.396;48.102;2023-07-20T00:16:18;22.97;63.76
75489;HTU21D;64069;46.396;48.102;2023-07-20T00:18:44;22.95;63.71
75489;HTU21D;64069;46.396;48.102;2023-07-20T00:21:10;22.95;63.79
75489;HTU21D;64069;46.396;48.102;2023-07-20T00:23:37;22.95;63.89
75489;HTU21D;64069;46.396;48.102;2023-07-20T00:26:03;22.91;63.93
75489;HTU21D;64069;46.396;48.102;2023-07-20T00:28:29;22.88;64.08
75489;HTU21D;64069;46.396;48.102;2023-07-20T00:30:55;22.86;64.18
75489;HTU21D;64069;46.396;48.102;2023-07-20T00:33:21;22.85;64.34
75489;HTU21D;64069;46.396;48.102;2023-07-20T00:35:47;22.83;64.43
75489;HTU21D;64069;46.396;48.102;2023-07-20T00:38:15;22.83;64.50
75489;HTU21D;64069;46.396;48.102;2023-07-20T00:40:41;22.81;64.53
75489;HTU21D;64069;46.396;48.102;2023-07-20T00:43:08;22.82;64.70
75489;HTU21D;64069;46.396;48.102;2023-07-20T00:45:34;22.79;64.79
75489;HTU21D;64069;46.396;48.102;2023-07-20T00:48:04;22.77;64.88
75489;HTU21D;64069;46.396;48.102;2023-07-20T00:50:31;22.76;64.99
75489;HTU21D;64069;46.396;48.102;2023-07-20T00:52:57;22.72;65.08
75489;HTU21D;64069;46.396;48.102;2023-07-20T00:55:25;22.67;65.30
75489;HTU21D;64069;46.396;48.102;2023-07-20T00:57:52;22.64;65.37
75489;HTU21D;64069;46.396;48.102;2023-07-20T01:00:19;22.60;65.52
75489;HTU21D;64069;46.396;48.102;2023-07-20T01:02:45;22.57;65.64
75489;HTU21D;64069;46.396;48.102;2023-07-20T01:05:13;22.54;65.81
75489;HTU21D;64069;46.396;48.102;2023-07-20T01:08:10;22.52;65.96
75489;HTU21D;64069;46.396;48.102;2023-07-20T01:10:46;22.47;66.14
75489;HTU21D;64069;46.396;48.102;2023-07-20T01:13:17;22.40;66.35
75489;HTU21D;64069;46.396;48.102;2023-07-20T01:15:49;22.34;66.77
75489;HTU21D;64069;46.396;48.102;2023-07-20T01:18:16;22.27;66.99
75489;HTU21D;64069;46.396;48.102;2023-07-20T01:20:43;22.25;67.30
75489;HTU21D;64069;46.396;48.102;2023-07-20T01:31:30;22.32;67.46
75489;HTU21D;64069;46.396;48.102;2023-07-20T01:34:00;22.34;67.44
75489;HTU21D;64069;46.396;48.102;2023-07-20T01:36:29;22.39;67.43
75489;HTU21D;64069;46.396;48.102;2023-07-20T01:38:56;22.42;67.49
75489;HTU21D;64069;46.396;48.102;2023-07-20T01:41:23;22.48;67.55
75489;HTU21D;64069;46.396;48.102;2023-07-20T01:43:49;22.53;67.49
75489;HTU21D;64069;46.396;48.102;2023-07-20T01:46:15;22.65;67.33
75489;HTU21D;64069;46.396;48.102;2023-07-20T01:48:41;22.78;67.04
75489;HTU21D;64069;46.396;48.102;2023-07-20T01:51:08;22.85;66.89
75489;HTU21D;64069;46.396;48.102;2023-07-20T01:53:33;22.86;66.94
75489;HTU21D;64069;46.396;48.102;2023-07-20T01:56:00;22.85;67.10
75489;HTU21D;64069;46.396;48.102;2023-07-20T01:58:25;22.93;67.20
75489;HTU21D;64069;46.396;48.102;2023-07-20T02:00:51;23.08;67.01
75489;HTU21D;64069;46.396;48.102;2023-07-20T02:03:18;23.31;66.50
75489;HTU21D;64069;46.396;48.102;2023-07-20T02:05:47;23.56;65.85
75489;HTU21D;64069;46.396;48.102;2023-07-20T02:08:13;23.83;65.08
75489;HTU21D;64069;46.396;48.102;2023-07-20T02:10:39;24.04;64.45
75489;HTU21D;64069;46.396;48.102;2023-07-20T02:13:05;24.25;63.92
75489;HTU21D;64069;46.396;48.102;2023-07-20T02:15:31;24.44;63.32
75489;HTU21D;64069;46.396;48.102;2023-07-20T02:17:57;24.62;62.82
75489;HTU21D;64069;46.396;48.102;2023-07-20T02:20:23;24.78;62.33
75489;HTU21D;64069;46.396;48.102;2023-07-20T02:22:49;24.98;61.89
75489;HTU21D;64069;46.396;48.102;2023-07-20T02:25:15;25.16;61.41
75489;HTU21D;64069;46.396;48.102;2023-07-20T02:27:41;25.35;60.89
75489;HTU21D;64069;46.396;48.102;2023-07-20T02:30:08;25.57;60.30
75489;HTU21D;64069;46.396;48.102;2023-07-20T02:32:35;25.74;59.81
75489;HTU21D;64069;46.396;48.102;2023-07-20T02:35:01;25.88;59.58
75489;HTU21D;64069;46.396;48.102;2023-07-20T02:37:27;25.95;59.25
75489;HTU21D;64069;46.396;48.102;2023-07-20T02:39:53;26.04;58.97
75489;HTU21D;64069;46.396;48.102;2023-07-20T02:42:19;26.19;58.53
75489;HTU21D;64069;46.396;48.102;2023-07-20T02:44:45;26.35;58.06
75489;HTU21D;64069;46.396;48.102;2023-07-20T02:47:11;26.53;57.52
75489;HTU21D;64069;46.396;48.102;2023-07-20T02:49:37;26.66;57.05
75489;HTU21D;64069;46.396;48.102;2023-07-20T02:52:03;26.69;56.79
75489;HTU21D;64069;46.396;48.102;2023-07-20T02:54:29;26.72;56.71
75489;HTU21D;64069;46.396;48.102;2023-07-20T02:56:56;26.82;56.33
75489;HTU21D;64069;46.396;48.102;2023-07-20T02:59:22;26.97;56.00
75489;HTU21D;64069;46.396;48.102;2023-07-20T03:01:48;27.15;55.52
75489;HTU21D;64069;46.396;48.102;2023-07-20T03:04:14;27.30;55.05
75489;HTU21D;64069;46.396;48.102;2023-07-20T03:06:41;27.50;54.49
75489;HTU21D;64069;46.396;48.102;2023-07-20T03:09:08;27.66;54.02
75489;HTU21D;64069;46.396;48.102;2023-07-20T03:11:35;27.73;53.60
75489;HTU21D;64069;46.396;48.102;2023-07-20T03:14:01;27.99;53.01
75489;HTU21D;64069;46.396;48.102;2023-07-20T03:16:27;28.04;52.49
75489;HTU21D;64069;46.396;48.102;2023-07-20T03:18:53;28.17;52.31
75489;HTU21D;64069;46.396;48.102;2023-07-20T03:21:19;28.33;52.02
75489;HTU21D;64069;46.396;48.102;2023-07-20T03:23:45;28.50;51.64
75489;HTU21D;64069;46.396;48.102;2023-07-20T03:26:11;28.60;51.03
75489;HTU21D;64069;46.396;48.102;2023-07-20T03:28:38;28.59;50.89
75489;HTU21D;64069;46.396;48.102;2023-07-20T03:31:04;28.59;50.79
75489;HTU21D;64069;46.396;48.102;2023-07-20T03:33:34;28.78;50.31
75489;HTU21D;64069;46.396;48.102;2023-07-20T03:36:00;28.95;49.85
75489;HTU21D;64069;46.396;48.102;2023-07-20T03:38:27;29.19;49.44
75489;HTU21D;64069;46.396;48.102;2023-07-20T03:40:56;29.36;48.99
75489;HTU21D;64069;46.396;48.102;2023-07-20T03:43:27;29.63;48.57
75489;HTU21D;64069;46.396;48.102;2023-07-20T03:45:53;29.66;48.87
75489;HTU21D;64069;46.396;48.102;2023-07-20T03:48:22;29.76;47.96
75489;HTU21D;64069;46.396;48.102;2023-07-20T03:50:50;29.96;47.18
75489;HTU21D;64069;46.396;48.102;2023-07-20T03:53:16;30.19;46.66
75489;HTU21D;64069;46.396;48.102;2023-07-20T03:55:50;30.41;45.95
75489;HTU21D;64069;46.396;48.102;2023-07-20T03:58:18;30.51;45.67
75489;HTU21D;64069;46.396;48.102;2023-07-20T04:00:49;30.68;45.09
75489;HTU21D;64069;46.396;48.102;2023-07-20T04:03:16;30.82;44.70
75489;HTU21D;64069;46.396;48.102;2023-07-20T04:05:43;31.09;44.23
75489;HTU21D;64069;46.396;48.102;2023-07-20T04:08:09;31.14;43.84
75489;HTU21D;64069;46.396;48.102;2023-07-20T04:10:37;30.90;44.67
75489;HTU21D;64069;46.396;48.102;2023-07-20T04:13:04;30.80;44.88
75489;HTU21D;64069;46.396;48.102;2023-07-20T04:15:30;30.93;44.58
75489;HTU21D;64069;46.396;48.102;2023-07-20T04:17:57;31.02;44.02
75489;HTU21D;64069;46.396;48.102;2023-07-20T04:20:24;31.12;43.64
75489;HTU21D;64069;46.396;48.102;2023-07-20T04:22:50;31.40;42.90
75489;HTU21D;64069;46.396;48.102;2023-07-20T04:25:17;31.64;42.21
75489;HTU21D;64069;46.396;48.102;2023-07-20T04:27:44;31.76;41.90
75489;HTU21D;64069;46.396;48.102;2023-07-20T04:30:13;31.71;41.47
75489;HTU21D;64069;46.396;48.102;2023-07-20T04:32:41;31.69;41.55
75489;HTU21D;64069;46.396;48.102;2023-07-20T04:35:16;31.85;41.21
75489;HTU21D;64069;46.396;48.102;2023-07-20T04:37:42;32.09;41.54
75489;HTU21D;64069;46.396;48.102;2023-07-20T04:40:15;32.19;41.70
75489;HTU21D;64069;46.396;48.102;2023-07-20T04:42:41;32.16;40.88
75489;HTU21D;64069;46.396;48.102;2023-07-20T04:45:10;32.26;40.34
75489;HTU21D;64069;46.396;48.102;2023-07-20T04:47:36;32.34;39.91
75489;HTU21D;64069;46.396;48.102;2023-07-20T04:50:02;32.52;39.59
75489;HTU21D;64069;46.396;48.102;2023-07-20T04:52:30;32.86;38.78
75489;HTU21D;64069;46.396;48.102;2023-07-20T04:54:57;33.08;38.36
75489;HTU21D;64069;46.396;48.102;2023-07-20T04:57:24;33.23;38.19
75489;HTU21D;64069;46.396;48.102;2023-07-20T04:59:50;33.42;37.53
75489;HTU21D;64069;46.396;48.102;2023-07-20T05:02:16;33.38;37.43
75489;HTU21D;64069;46.396;48.102;2023-07-20T05:04:42;33.32;37.30
75489;HTU21D;64069;46.396;48.102;2023-07-20T05:07:09;33.35;36.92
75489;HTU21D;64069;46.396;48.102;2023-07-20T05:09:35;33.40;36.61
75489;HTU21D;64069;46.396;48.102;2023-07-20T05:12:01;33.47;36.38
75489;HTU21D;64069;46.396;48.102;2023-07-20T05:14:28;33.45;36.08
75489;HTU21D;64069;46.396;48.102;2023-07-20T05:16:55;33.55;35.76
75489;HTU21D;64069;46.396;48.102;2023-07-20T05:19:21;33.58;35.32
75489;HTU21D;64069;46.396;48.102;2023-07-20T05:21:47;33.63;35.36
75489;HTU21D;64069;46.396;48.102;2023-07-20T05:24:13;33.77;34.93
75489;HTU21D;64069;46.396;48.102;2023-07-20T05:26:40;34.09;34.26
75489;HTU21D;64069;46.396;48.102;2023-07-20T05:29:05;34.32;33.81
75489;HTU21D;64069;46.396;48.102;2023-07-20T05:31:31;34.37;33.15
75489;HTU21D;64069;46.396;48.102;2023-07-20T05:33:57;34.34;33.07
75489;HTU21D;64069;46.396;48.102;2023-07-20T05:36:24;34.27;33.16
75489;HTU21D;64069;46.396;48.102;2023-07-20T05:38:53;34.41;32.62
75489;HTU21D;64069;46.396;48.102;2023-07-20T05:41:19;34.59;31.88
75489;HTU21D;64069;46.396;48.102;2023-07-20T05:43:44;34.61;31.09
75489;HTU21D;64069;46.396;48.102;2023-07-20T05:46:10;34.82;30.56
75489;HTU21D;64069;46.396;48.102;2023-07-20T05:48:36;35.04;30.03
75489;HTU21D;64069;46.396;48.102;2023-07-20T05:51:02;34.94;29.82
75489;HTU21D;64069;46.396;48.102;2023-07-20T05:53:29;34.83;29.26
75489;HTU21D;64069;46.396;48.102;2023-07-20T05:55:55;34.99;28.90
75489;HTU21D;64069;46.396;48.102;2023-07-20T05:58:21;35.35;28.27
75489;HTU21D;64069;46.396;48.102;2023-07-20T06:00:49;35.26;27.61
75489;HTU21D;64069;46.396;48.102;2023-07-20T06:03:15;35.12;27.84
75489;HTU21D;64069;46.396;48.102;2023-07-20T06:05:45;35.26;27.24
75489;HTU21D;64069;46.396;48.102;2023-07-20T06:08:11;35.38;27.33
75489;HTU21D;64069;46.396;48.102;2023-07-20T06:10:37;35.52;27.03
75489;HTU21D;64069;46.396;48.102;2023-07-20T06:13:03;35.50;26.13
75489;HTU21D;64069;46.396;48.102;2023-07-20T06:15:33;35.38;25.76
75489;HTU21D;64069;46.396;48.102;2023-07-20T06:18:01;35.38;25.55
75489;HTU21D;64069;46.396;48.102;2023-07-20T06:20:27;35.39;24.82
75489;HTU21D;64069;46.396;48.102;2023-07-20T06:22:53;35.57;24.29
75489;HTU21D;64069;46.396;48.102;2023-07-20T06:25:19;35.57;24.08
75489;HTU21D;64069;46.396;48.102;2023-07-20T06:27:46;35.40;23.66
75489;HTU21D;64069;46.396;48.102;2023-07-20T06:30:12;34.99;24.18
75489;HTU21D;64069;46.396;48.102;2023-07-20T06:32:38;34.81;24.01
75489;HTU21D;64069;46.396;48.102;2023-07-20T06:35:05;34.45;23.88
75489;HTU21D;64069;46.396;48.102;2023-07-20T06:37:32;34.03;23.94
75489;HTU21D;64069;46.396;48.102;2023-07-20T06:39:58;34.14;24.45
75489;HTU21D;64069;46.396;48.102;2023-07-20T06:42:24;34.60;24.29
75489;HTU21D;64069;46.396;48.102;2023-07-20T06:44:50;34.73;24.25
75489;HTU21D;64069;46.396;48.102;2023-07-20T06:47:16;34.64;24.17
75489;HTU21D;64069;46.396;48.102;2023-07-20T06:49:41;34.76;23.92
75489;HTU21D;64069;46.396;48.102;2023-07-20T06:52:07;34.61;23.99
75489;HTU21D;64069;46.396;48.102;2023-07-20T06:54:35;34.63;23.83
75489;HTU21D;64069;46.396;48.102;2023-07-20T06:57:00;35.19;23.45
75489;HTU21D;64069;46.396;48.102;2023-07-20T06:59:26;35.60;23.16
75489;HTU21D;64069;46.396;48.102;2023-07-20T07:01:52;35.74;23.32
75489;HTU21D;64069;46.396;48.102;2023-07-20T07:04:18;35.95;23.47
75489;HTU21D;64069;46.396;48.102;2023-07-20T07:06:44;35.92;23.30
75489;HTU21D;64069;46.396;48.102;2023-07-20T07:09:10;35.88;23.12
75489;HTU21D;64069;46.396;48.102;2023-07-20T07:11:36;35.90;22.95
75489;HTU21D;64069;46.396;48.102;2023-07-20T07:14:01;35.83;23.03
75489;HTU21D;64069;46.396;48.102;2023-07-20T07:16:31;35.49;22.95
75489;HTU21D;64069;46.396;48.102;2023-07-20T07:18:57;35.30;23.43
75489;HTU21D;64069;46.396;48.102;2023-07-20T07:21:23;35.36;23.56
75489;HTU21D;64069;46.396;48.102;2023-07-20T07:23:51;35.41;23.75
75489;HTU21D;64069;46.396;48.102;2023-07-20T07:26:19;35.65;23.30
75489;HTU21D;64069;46.396;48.102;2023-07-20T07:28:45;35.85;22.76
75489;HTU21D;64069;46.396;48.102;2023-07-20T07:31:11;36.02;22.72
75489;HTU21D;64069;46.396;48.102;2023-07-20T07:33:37;35.92;22.80
75489;HTU21D;64069;46.396;48.102;2023-07-20T07:36:03;36.09;22.65
75489;HTU21D;64069;46.396;48.102;2023-07-20T07:38:29;36.32;22.27
75489;HTU21D;64069;46.396;48.102;2023-07-20T07:40:55;36.38;22.26
75489;HTU21D;64069;46.396;48.102;2023-07-20T07:43:21;36.36;21.98
75489;HTU21D;64069;46.396;48.102;2023-07-20T07:45:47;36.21;22.47
75489;HTU21D;64069;46.396;48.102;2023-07-20T07:48:13;36.07;22.92
75489;HTU21D;64069;46.396;48.102;2023-07-20T07:50:39;36.22;22.57
75489;HTU21D;64069;46.396;48.102;2023-07-20T07:53:06;36.22;22.39
75489;HTU21D;64069;46.396;48.102;2023-07-20T07:55:33;36.04;22.93
75489;HTU21D;64069;46.396;48.102;2023-07-20T07:57:58;35.82;23.17
75489;HTU21D;64069;46.396;48.102;2023-07-20T08:00:25;35.43;23.43
75489;HTU21D;64069;46.396;48.102;2023-07-20T08:02:54;35.48;23.52
75489;HTU21D;64069;46.396;48.102;2023-07-20T08:05:20;35.43;23.35
75489;HTU21D;64069;46.396;48.102;2023-07-20T08:07:46;35.54;23.24
75489;HTU21D;64069;46.396;48.102;2023-07-20T08:10:12;35.19;23.61
75489;HTU21D;64069;46.396;48.102;2023-07-20T08:12:38;34.88;24.17
75489;HTU21D;64069;46.396;48.102;2023-07-20T08:15:04;34.94;23.97
75489;HTU21D;64069;46.396;48.102;2023-07-20T08:17:30;35.29;23.53
75489;HTU21D;64069;46.396;48.102;2023-07-20T08:19:56;35.65;23.29
75489;HTU21D;64069;46.396;48.102;2023-07-20T08:22:22;35.81;23.27
75489;HTU21D;64069;46.396;48.102;2023-07-20T08:24:48;35.86;23.51
75489;HTU21D;64069;46.396;48.102;2023-07-20T08:27:14;35.98;23.61
75489;HTU21D;64069;46.396;48.102;2023-07-20T08:29:40;36.00;23.68
75489;HTU21D;64069;46.396;48.102;2023-07-20T08:32:06;36.06;23.30
75489;HTU21D;64069;46.396;48.102;2023-07-20T08:34:32;36.00;23.12
75489;HTU21D;64069;46.396;48.102;2023-07-20T08:36:58;35.71;23.21
75489;HTU21D;64069;46.396;48.102;2023-07-20T08:39:24;35.43;23.23
75489;HTU21D;64069;46.396;48.102;2023-07-20T08:41:51;35.27;23.17
75489;HTU21D;64069;46.396;48.102;2023-07-20T08:44:20;35.14;23.40
75489;HTU21D;64069;46.396;48.102;2023-07-20T08:46:47;35.52;22.83
75489;HTU21D;64069;46.396;48.102;2023-07-20T08:49:17;35.97;22.48
75489;HTU21D;64069;46.396;48.102;2023-07-20T08:51:45;36.38;22.22
75489;HTU21D;64069;46.396;48.102;2023-07-20T08:54:12;36.14;22.11
75489;HTU21D;64069;46.396;48.102;2023-07-20T08:56:40;36.06;22.85
75489;HTU21D;64069;46.396;48.102;2023-07-20T08:59:12;36.01;22.59
75489;HTU21D;64069;46.396;48.102;2023-07-20T09:01:39;35.86;22.74
75489;HTU21D;64069;46.396;48.102;2023-07-20T09:04:06;35.79;23.19
75489;HTU21D;64069;46.396;48.102;2023-07-20T09:06:32;35.44;23.73
75489;HTU21D;64069;46.396;48.102;2023-07-20T09:09:03;35.28;24.23
75489;HTU21D;64069;46.396;48.102;2023-07-20T09:11:29;35.29;24.19
75489;HTU21D;64069;46.396;48.102;2023-07-20T09:14:07;35.28;23.98
75489;HTU21D;64069;46.396;48.102;2023-07-20T09:16:51;35.07;23.89
75489;HTU21D;64069;46.396;48.102;2023-07-20T09:19:19;34.68;24.09
75489;HTU21D;64069;46.396;48.102;2023-07-20T09:21:46;34.12;24.49
75489;HTU21D;64069;46.396;48.102;2023-07-20T09:24:14;33.71;24.86
75489;HTU21D;64069;46.396;48.102;2023-07-20T09:26:47;33.72;24.84
75489;HTU21D;64069;46.396;48.102;2023-07-20T09:29:14;33.87;24.45
75489;HTU21D;64069;46.396;48.102;2023-07-20T09:32:01;33.91;24.49
75489;HTU21D;64069;46.396;48.102;2023-07-20T09:34:31;34.05;24.68
75489;HTU21D;64069;46.396;48.102;2023-07-20T09:37:00;34.42;24.61
75489;HTU21D;64069;46.396;48.102;2023-07-20T09:39:26;34.77;24.63
75489;HTU21D;64069;46.396;48.102;2023-07-20T09:41:52;34.85;24.66
75489;HTU21D;64069;46.396;48.102;2023-07-20T09:44:22;34.69;24.56
75489;HTU21D;64069;46.396;48.102;2023-07-20T09:46:49;34.69;24.28
75489;HTU21D;64069;46.396;48.102;2023-07-20T09:49:20;34.93;23.79
75489;HTU21D;64069;46.396;48.102;2023-07-20T09:51:47;35.04;23.72
75489;HTU21D;64069;46.396;48.102;2023-07-20T09:54:13;35.15;23.66
75489;HTU21D;64069;46.396;48.102;2023-07-20T09:56:41;35.14;23.81
75489;HTU21D;64069;46.396;48.102;2023-07-20T09:59:07;35.21;24.22
75489;HTU21D;64069;46.396;48.102;2023-07-20T10:01:34;35.13;23.86
75489;HTU21D;64069;46.396;48.102;2023-07-20T10:04:02;34.85;23.94
75489;HTU21D;64069;46.396;48.102;2023-07-20T10:06:29;35.01;23.70
75489;HTU21D;64069;46.396;48.102;2023-07-20T10:09:03;35.23;23.37
75489;HTU21D;64069;46.396;48.102;2023-07-20T10:11:31;34.99;23.43
75489;HTU21D;64069;46.396;48.102;2023-07-20T10:14:00;34.89;23.90
75489;HTU21D;64069;46.396;48.102;2023-07-20T10:16:32;35.12;23.75
75489;HTU21D;64069;46.396;48.102;2023-07-20T10:19:34;35.12;23.98
75489;HTU21D;64069;46.396;48.102;2023-07-20T10:22:00;35.57;23.91
75489;HTU21D;64069;46.396;48.102;2023-07-20T10:24:28;35.72;23.69
75489;HTU21D;64069;46.396;48.102;2023-07-20T10:26:55;35.69;23.88
75489;HTU21D;64069;46.396;48.102;2023-07-20T10:29:25;35.82;23.77
75489;HTU21D;64069;46.396;48.102;2023-07-20T10:31:57;35.81;23.34
75489;HTU21D;64069;46.396;48.102;2023-07-20T10:34:24;35.56;23.36
75489;HTU21D;64069;46.396;48.102;2023-07-20T10:36:53;34.98;24.04
75489;HTU21D;64069;46.396;48.102;2023-07-20T10:39:32;34.59;24.40
75489;HTU21D;64069;46.396;48.102;2023-07-20T10:42:09;34.27;25.03
75489;HTU21D;64069;46.396;48.102;2023-07-20T10:44:41;34.07;25.14
75489;HTU21D;64069;46.396;48.102;2023-07-20T10:47:12;34.04;25.11
75489;HTU21D;64069;46.396;48.102;2023-07-20T10:49:57;33.91;25.27
75489;HTU21D;64069;46.396;48.102;2023-07-20T10:52:23;33.88;25.58
75489;HTU21D;64069;46.396;48.102;2023-07-20T10:54:49;33.65;25.19
75489;HTU21D;64069;46.396;48.102;2023-07-20T10:57:29;33.29;25.68
75489;HTU21D;64069;46.396;48.102;2023-07-20T11:00:28;33.28;26.14
75489;HTU21D;64069;46.396;48.102;2023-07-20T11:02:58;33.35;26.33
75489;HTU21D;64069;46.396;48.102;2023-07-20T11:05:40;33.30;26.02
75489;HTU21D;64069;46.396;48.102;2023-07-20T11:08:11;33.27;25.83
75489;HTU21D;64069;46.396;48.102;2023-07-20T11:10:38;33.37;25.58
75489;HTU21D;64069;46.396;48.102;2023-07-20T11:13:21;33.61;25.91
75489;HTU21D;64069;46.396;48.102;2023-07-20T11:18:26;33.92;25.27
75489;HTU21D;64069;46.396;48.102;2023-07-20T11:20:52;34.09;25.22
75489;HTU21D;64069;46.396;48.102;2023-07-20T11:23:20;34.26;24.49
75489;HTU21D;64069;46.396;48.102;2023-07-20T11:25:46;34.22;24.40
75489;HTU21D;64069;46.396;48.102;2023-07-20T11:28:12;34.26;24.33
75489;HTU21D;64069;46.396;48.102;2023-07-20T11:30:39;34.40;24.31
75489;HTU21D;64069;46.396;48.102;2023-07-20T11:33:06;34.66;24.40
75489;HTU21D;64069;46.396;48.102;2023-07-20T11:35:43;34.46;24.10
75489;HTU21D;64069;46.396;48.102;2023-07-20T11:38:13;34.07;24.60
75489;HTU21D;64069;46.396;48.102;2023-07-20T11:40:44;33.87;25.27
75489;HTU21D;64069;46.396;48.102;2023-07-20T11:43:14;33.64;25.66
75489;HTU21D;64069;46.396;48.102;2023-07-20T11:45:45;33.28;26.13
75489;HTU21D;64069;46.396;48.102;2023-07-20T11:48:17;33.00;26.46
75489;HTU21D;64069;46.396;48.102;2023-07-20T11:50:43;32.73;26.61
75489;HTU21D;64069;46.396;48.102;2023-07-20T11:53:09;32.50;26.88
75489;HTU21D;64069;46.396;48.102;2023-07-20T11:55:36;32.39;27.10
75489;HTU21D;64069;46.396;48.102;2023-07-20T11:58:05;32.26;27.55
75489;HTU21D;64069;46.396;48.102;2023-07-20T12:00:32;32.03;27.99
75489;HTU21D;64069;46.396;48.102;2023-07-20T12:02:59;31.83;28.39
75489;HTU21D;64069;46.396;48.102;2023-07-20T12:05:25;31.79;28.45
75489;HTU21D;64069;46.396;48.102;2023-07-20T12:07:55;31.79;28.52
75489;HTU21D;64069;46.396;48.102;2023-07-20T12:10:28;31.73;28.71
75489;HTU21D;64069;46.396;48.102;2023-07-20T12:12:54;31.70;28.70
75489;HTU21D;64069;46.396;48.102;2023-07-20T12:15:27;31.67;28.70
75489;HTU21D;64069;46.396;48.102;2023-07-20T12:18:02;31.63;28.72
75489;HTU21D;64069;46.396;48.102;2023-07-20T12:20:33;31.61;28.68
75489;HTU21D;64069;46.396;48.102;2023-07-20T12:23:09;31.55;28.99
75489;HTU21D;64069;46.396;48.102;2023-07-20T12:28:08;31.59;28.74
75489;HTU21D;64069;46.396;48.102;2023-07-20T12:30:43;31.68;28.53
75489;HTU21D;64069;46.396;48.102;2023-07-20T12:33:12;31.55;28.62
75489;HTU21D;64069;46.396;48.102;2023-07-20T12:35:41;31.35;28.79
75489;HTU21D;64069;46.396;48.102;2023-07-20T12:38:08;31.19;28.83
75489;HTU21D;64069;46.396;48.102;2023-07-20T12:40:38;31.07;29.01
75489;HTU21D;64069;46.396;48.102;2023-07-20T12:43:04;31.05;28.79
75489;HTU21D;64069;46.396;48.102;2023-07-20T12:45:30;31.00;28.81
75489;HTU21D;64069;46.396;48.102;2023-07-20T12:47:56;30.98;28.86
75489;HTU21D;64069;46.396;48.102;2023-07-20T12:50:22;30.95;29.08
75489;HTU21D;64069;46.396;48.102;2023-07-20T12:52:48;30.90;29.13
75489;HTU21D;64069;46.396;48.102;2023-07-20T12:55:14;30.87;29.11
75489;HTU21D;64069;46.396;48.102;2023-07-20T12:57:40;30.78;29.22
75489;HTU21D;64069;46.396;48.102;2023-07-20T13:00:11;30.76;29.22
75489;HTU21D;64069;46.396;48.102;2023-07-20T13:02:38;30.83;29.03
75489;HTU21D;64069;46.396;48.102;2023-07-20T13:05:04;30.87;29.03
75489;HTU21D;64069;46.396;48.102;2023-07-20T13:07:35;31.01;29.06
75489;HTU21D;64069;46.396;48.102;2023-07-20T13:10:02;0.00;28.94
75489;HTU21D;64069;46.396;48.102;2023-07-20T13:12:30;31.14;29.02
75489;HTU21D;64069;46.396;48.102;2023-07-20T13:14:56;31.15;28.93
75489;HTU21D;64069;46.396;48.102;2023-07-20T13:17:22;31.15;28.68
75489;HTU21D;64069;46.396;48.102;2023-07-20T13:19:48;31.19;28.74
75489;HTU21D;64069;46.396;48.102;2023-07-20T13:22:14;31.25;28.66
75489;HTU21D;64069;46.396;48.102;2023-07-20T13:24:41;31.34;28.87
75489;HTU21D;64069;46.396;48.102;2023-07-20T13:27:07;31.43;28.98
75489;HTU21D;64069;46.396;48.102;2023-07-20T13:29:33;31.56;29.08
75489;HTU21D;64069;46.396;48.102;2023-07-20T13:31:59;31.51;28.69
75489;HTU21D;64069;46.396;48.102;2023-07-20T13:34:27;31.48;28.69
75489;HTU21D;64069;46.396;48.102;2023-07-20T13:36:53;31.42;28.59
75489;HTU21D;64069;46.396;48.102;2023-07-20T13:39:19;31.41;28.56
75489;HTU21D;64069;46.396;48.102;2023-07-20T13:41:45;31.39;28.65
75489;HTU21D;64069;46.396;48.102;2023-07-20T13:44:11;31.40;28.77
75489;HTU21D;64069;46.396;48.102;2023-07-20T13:46:37;31.36;28.93
75489;HTU21D;64069;46.396;48.102;2023-07-20T13:49:03;31.24;28.55
75489;HTU21D;64069;46.396;48.102;2023-07-20T13:51:29;31.14;28.53
75489;HTU21D;64069;46.396;48.102;2023-07-20T13:53:55;31.13;28.61
75489;HTU21D;64069;46.396;48.102;2023-07-20T13:56:21;31.11;28.51
75489;HTU21D;64069;46.396;48.102;2023-07-20T13:58:47;31.06;28.59
75489;HTU21D;64069;46.396;48.102;2023-07-20T14:01:13;31.02;28.74
75489;HTU21D;64069;46.396;48.102;2023-07-20T14:03:38;31.02;28.80
75489;HTU21D;64069;46.396;48.102;2023-07-20T14:06:04;30.99;28.81
75489;HTU21D;64069;46.396;48.102;2023-07-20T14:08:30;30.87;28.92
75489;HTU21D;64069;46.396;48.102;2023-07-20T14:10:56;30.70;28.92
75489;HTU21D;64069;46.396;48.102;2023-07-20T14:13:22;30.54;29.13
75489;HTU21D;64069;46.396;48.102;2023-07-20T14:15:48;30.48;29.07
75489;HTU21D;64069;46.396;48.102;2023-07-20T14:18:15;30.48;29.11
75489;HTU21D;64069;46.396;48.102;2023-07-20T14:20:41;30.53;29.05
75489;HTU21D;64069;46.396;48.102;2023-07-20T14:23:07;30.61;29.14
75489;HTU21D;64069;46.396;48.102;2023-07-20T14:25:33;30.56;29.04
75489;HTU21D;64069;46.396;48.102;2023-07-20T14:28:00;30.42;29.29
75489;HTU21D;64069;46.396;48.102;2023-07-20T14:30:26;30.36;29.56
75489;HTU21D;64069;46.396;48.102;2023-07-20T14:32:53;30.33;29.62
75489;HTU21D;64069;46.396;48.102;2023-07-20T14:35:19;30.26;29.71
75489;HTU21D;64069;46.396;48.102;2023-07-20T14:37:45;30.25;29.87
75489;HTU21D;64069;46.396;48.102;2023-07-20T14:40:16;30.24;29.81
75489;HTU21D;64069;46.396;48.102;2023-07-20T14:42:42;30.12;30.02
75489;HTU21D;64069;46.396;48.102;2023-07-20T14:45:08;30.01;30.29
75489;HTU21D;64069;46.396;48.102;2023-07-20T14:47:37;29.91;30.59
75489;HTU21D;64069;46.396;48.102;2023-07-20T14:50:04;29.87;30.71
75489;HTU21D;64069;46.396;48.102;2023-07-20T14:52:30;29.82;30.72
75489;HTU21D;64069;46.396;48.102;2023-07-20T14:54:56;29.83;30.72
75489;HTU21D;64069;46.396;48.102;2023-07-20T14:57:22;29.87;30.68
75489;HTU21D;64069;46.396;48.102;2023-07-20T14:59:49;29.87;30.74
75489;HTU21D;64069;46.396;48.102;2023-07-20T15:02:15;29.87;30.64
75489;HTU21D;64069;46.396;48.102;2023-07-20T15:04:49;29.86;30.67
75489;HTU21D;64069;46.396;48.102;2023-07-20T15:07:19;29.86;30.61
75489;HTU21D;64069;46.396;48.102;2023-07-20T15:09:45;29.83;30.70
75489;HTU21D;64069;46.396;48.102;2023-07-20T15:12:11;29.81;30.82
75489;HTU21D;64069;46.396;48.102;2023-07-20T15:14:40;29.75;30.70
75489;HTU21D;64069;46.396;48.102;2023-07-20T15:17:10;29.67;30.71
75489;HTU21D;64069;46.396;48.102;2023-07-20T15:19:36;29.61;30.80